sensor_id;sensor_type;location;lat;lon;timestamp;P1;durP1;ratioP1;P2;durP2;ratioP2
14876;SDS011;69691;48.172;17.070;2023-07-29T00:01:02;7.22;;;5.25;;
14876;SDS011;69691;48.172;17.070;2023-07-29T00:03:28;8.35;;;5.63;;
14876;SDS011;69691;48.172;17.070;2023-07-29T00:05:55;10.52;;;5.20;;
14876;SDS011;69691;48.172;17.070;2023-07-29T00:08:21;5.85;;;5.35;;
14876;SDS011;69691;48.172;17.070;2023-07-29T00:10:47;6.95;;;5.28;;
14876;SDS011;69691;48.172;17.070;2023-07-29T00:13:13;6.90;;;5.13;;
14876;SDS011;69691;48.172;17.070;2023-07-29T00:15:39;6.25;;;5.25;;
14876;SDS011;69691;48.172;17.070;2023-07-29T00:18:05;5.47;;;5.07;;
14876;SDS011;69691;48.172;17.070;2023-07-29T00:20:30;7.60;;;5.38;;
14876;SDS011;69691;48.172;17.070;2023-07-29T00:22:56;6.28;;;5.00;;
14876;SDS011;69691;48.172;17.070;2023-07-29T00:25:23;5.90;;;5.20;;
14876;SDS011;69691;48.172;17.070;2023-07-29T00:27:49;8.13;;;5.47;;
14876;SDS011;69691;48.172;17.070;2023-07-29T00:30:15;8.10;;;5.70;;
14876;SDS011;69691;48.172;17.070;2023-07-29T00:32:41;6.82;;;5.20;;
14876;SDS011;69691;48.172;17.070;2023-07-29T00:35:07;10.75;;;5.05;;
14876;SDS011;69691;48.172;17.070;2023-07-29T00:37:33;7.38;;;5.28;;
14876;SDS011;69691;48.172;17.070;2023-07-29T00:39:59;7.40;;;5.53;;
14876;SDS011;69691;48.172;17.070;2023-07-29T00:42:25;6.10;;;5.50;;
14876;SDS011;69691;48.172;17.070;2023-07-29T00:44:51;7.40;;;5.28;;
14876;SDS011;69691;48.172;17.070;2023-07-29T00:47:17;8.18;;;5.07;;
14876;SDS011;69691;48.172;17.070;2023-07-29T00:49:44;6.05;;;4.88;;
14876;SDS011;69691;48.172;17.070;2023-07-29T00:52:11;12.80;;;5.70;;
14876;SDS011;69691;48.172;17.070;2023-07-29T00:54:38;8.35;;;5.57;;
14876;SDS011;69691;48.172;17.070;2023-07-29T00:57:05;8.60;;;5.35;;
14876;SDS011;69691;48.172;17.070;2023-07-29T00:59:34;9.18;;;4.93;;
14876;SDS011;69691;48.172;17.070;2023-07-29T01:02:01;6.88;;;4.80;;
14876;SDS011;69691;48.172;17.070;2023-07-29T01:04:30;8.65;;;5.45;;
14876;SDS011;69691;48.172;17.070;2023-07-29T01:06:58;7.70;;;5.40;;
14876;SDS011;69691;48.172;17.070;2023-07-29T01:09:46;6.05;;;5.40;;
14876;SDS011;69691;48.172;17.070;2023-07-29T01:12:33;6.50;;;5.90;;
14876;SDS011;69691;48.172;17.070;2023-07-29T01:18:19;6.90;;;5.57;;
14876;SDS011;69691;48.172;17.070;2023-07-29T01:20:58;6.20;;;5.60;;
14876;SDS011;69691;48.172;17.070;2023-07-29T01:23:29;7.18;;;5.47;;
14876;SDS011;69691;48.172;17.070;2023-07-29T01:26:02;8.23;;;5.38;;
14876;SDS011;69691;48.172;17.070;2023-07-29T01:28:28;6.30;;;5.65;;
14876;SDS011;69691;48.172;17.070;2023-07-29T01:31:16;6.45;;;5.50;;
14876;SDS011;69691;48.172;17.070;2023-07-29T01:34:22;7.97;;;5.53;;
14876;SDS011;69691;48.172;17.070;2023-07-29T01:37:14;5.85;;;5.25;;
14876;SDS011;69691;48.172;17.070;2023-07-29T01:39:46;6.55;;;5.47;;
14876;SDS011;69691;48.172;17.070;2023-07-29T01:42:15;6.57;;;5.35;;
14876;SDS011;69691;48.172;17.070;2023-07-29T01:44:41;9.70;;;5.50;;
14876;SDS011;69691;48.172;17.070;2023-07-29T01:47:07;6.05;;;5.50;;
14876;SDS011;69691;48.172;17.070;2023-07-29T01:49:33;6.22;;;5.63;;
14876;SDS011;69691;48.172;17.070;2023-07-29T01:51:59;7.43;;;5.85;;
14876;SDS011;69691;48.172;17.070;2023-07-29T01:54:25;8.73;;;5.88;;
14876;SDS011;69691;48.172;17.070;2023-07-29T01:56:51;7.40;;;5.35;;
14876;SDS011;69691;48.172;17.070;2023-07-29T01:59:17;7.90;;;5.40;;
14876;SDS011;69691;48.172;17.070;2023-07-29T02:01:43;5.50;;;5.00;;
14876;SDS011;69691;48.172;17.070;2023-07-29T02:04:09;5.72;;;5.15;;
14876;SDS011;69691;48.172;17.070;2023-07-29T02:06:35;7.72;;;5.78;;
14876;SDS011;69691;48.172;17.070;2023-07-29T02:09:01;7.07;;;5.50;;
14876;SDS011;69691;48.172;17.070;2023-07-29T02:11:29;5.75;;;4.80;;
14876;SDS011;69691;48.172;17.070;2023-07-29T02:13:56;8.60;;;5.45;;
14876;SDS011;69691;48.172;17.070;2023-07-29T02:16:22;7.05;;;5.57;;
14876;SDS011;69691;48.172;17.070;2023-07-29T02:18:48;8.18;;;6.43;;
14876;SDS011;69691;48.172;17.070;2023-07-29T02:21:15;7.28;;;5.70;;
14876;SDS011;69691;48.172;17.070;2023-07-29T02:23:41;11.80;;;5.47;;
14876;SDS011;69691;48.172;17.070;2023-07-29T02:26:07;6.75;;;5.53;;
14876;SDS011;69691;48.172;17.070;2023-07-29T02:28:33;7.72;;;5.90;;
14876;SDS011;69691;48.172;17.070;2023-07-29T02:31:09;7.35;;;6.00;;
14876;SDS011;69691;48.172;17.070;2023-07-29T02:33:50;7.22;;;5.50;;
14876;SDS011;69691;48.172;17.070;2023-07-29T02:36:17;8.32;;;5.63;;
14876;SDS011;69691;48.172;17.070;2023-07-29T02:38:43;5.82;;;5.22;;
14876;SDS011;69691;48.172;17.070;2023-07-29T02:41:10;7.85;;;5.30;;
14876;SDS011;69691;48.172;17.070;2023-07-29T02:43:37;6.50;;;5.90;;
14876;SDS011;69691;48.172;17.070;2023-07-29T02:46:04;6.45;;;5.78;;
14876;SDS011;69691;48.172;17.070;2023-07-29T02:48:30;9.88;;;5.80;;
14876;SDS011;69691;48.172;17.070;2023-07-29T02:50:56;7.65;;;5.85;;
14876;SDS011;69691;48.172;17.070;2023-07-29T02:53:22;7.75;;;5.20;;
14876;SDS011;69691;48.172;17.070;2023-07-29T02:55:48;9.90;;;5.38;;
14876;SDS011;69691;48.172;17.070;2023-07-29T02:58:14;5.68;;;5.20;;
14876;SDS011;69691;48.172;17.070;2023-07-29T03:00:40;6.80;;;6.03;;
14876;SDS011;69691;48.172;17.070;2023-07-29T03:03:09;6.45;;;5.80;;
14876;SDS011;69691;48.172;17.070;2023-07-29T03:05:35;6.60;;;5.60;;
14876;SDS011;69691;48.172;17.070;2023-07-29T03:08:02;6.47;;;5.88;;
14876;SDS011;69691;48.172;17.070;2023-07-29T03:10:28;7.63;;;6.05;;
14876;SDS011;69691;48.172;17.070;2023-07-29T03:12:54;5.57;;;5.05;;
14876;SDS011;69691;48.172;17.070;2023-07-29T03:15:24;10.75;;;5.57;;
14876;SDS011;69691;48.172;17.070;2023-07-29T03:17:51;7.13;;;6.10;;
14876;SDS011;69691;48.172;17.070;2023-07-29T03:20:19;6.07;;;5.47;;
14876;SDS011;69691;48.172;17.070;2023-07-29T03:22:45;6.07;;;5.20;;
14876;SDS011;69691;48.172;17.070;2023-07-29T03:25:13;6.28;;;5.13;;
14876;SDS011;69691;48.172;17.070;2023-07-29T03:27:39;6.80;;;6.10;;
14876;SDS011;69691;48.172;17.070;2023-07-29T03:30:07;7.57;;;5.88;;
14876;SDS011;69691;48.172;17.070;2023-07-29T03:32:33;10.48;;;5.72;;
14876;SDS011;69691;48.172;17.070;2023-07-29T03:34:59;8.25;;;6.32;;
14876;SDS011;69691;48.172;17.070;2023-07-29T03:37:25;9.07;;;6.28;;
14876;SDS011;69691;48.172;17.070;2023-07-29T03:39:51;6.97;;;6.10;;
14876;SDS011;69691;48.172;17.070;2023-07-29T03:42:17;7.40;;;5.57;;
14876;SDS011;69691;48.172;17.070;2023-07-29T03:44:43;6.20;;;5.47;;
14876;SDS011;69691;48.172;17.070;2023-07-29T03:47:09;6.40;;;5.45;;
14876;SDS011;69691;48.172;17.070;2023-07-29T03:49:37;7.72;;;5.72;;
14876;SDS011;69691;48.172;17.070;2023-07-29T03:52:03;6.53;;;5.93;;
14876;SDS011;69691;48.172;17.070;2023-07-29T03:54:30;7.03;;;5.78;;
14876;SDS011;69691;48.172;17.070;2023-07-29T03:56:55;7.53;;;5.65;;
14876;SDS011;69691;48.172;17.070;2023-07-29T03:59:21;7.95;;;5.68;;
14876;SDS011;69691;48.172;17.070;2023-07-29T04:01:48;6.65;;;5.97;;
14876;SDS011;69691;48.172;17.070;2023-07-29T04:04:14;7.47;;;5.57;;
14876;SDS011;69691;48.172;17.070;2023-07-29T04:06:40;7.90;;;5.80;;
14876;SDS011;69691;48.172;17.070;2023-07-29T04:09:06;6.10;;;5.50;;
14876;SDS011;69691;48.172;17.070;2023-07-29T04:11:33;10.80;;;6.00;;
14876;SDS011;69691;48.172;17.070;2023-07-29T04:13:59;8.60;;;5.55;;
14876;SDS011;69691;48.172;17.070;2023-07-29T04:16:25;10.20;;;5.47;;
14876;SDS011;69691;48.172;17.070;2023-07-29T04:18:51;9.73;;;5.60;;
14876;SDS011;69691;48.172;17.070;2023-07-29T04:21:17;6.55;;;5.90;;
14876;SDS011;69691;48.172;17.070;2023-07-29T04:23:43;6.53;;;5.85;;
14876;SDS011;69691;48.172;17.070;2023-07-29T04:26:08;8.88;;;5.53;;
14876;SDS011;69691;48.172;17.070;2023-07-29T04:28:34;6.30;;;5.55;;
14876;SDS011;69691;48.172;17.070;2023-07-29T04:31:00;6.22;;;5.63;;
14876;SDS011;69691;48.172;17.070;2023-07-29T04:33:26;8.18;;;5.65;;
14876;SDS011;69691;48.172;17.070;2023-07-29T04:35:54;9.98;;;5.22;;
14876;SDS011;69691;48.172;17.070;2023-07-29T04:38:20;8.82;;;5.88;;
14876;SDS011;69691;48.172;17.070;2023-07-29T04:40:46;9.45;;;5.95;;
14876;SDS011;69691;48.172;17.070;2023-07-29T04:43:14;8.45;;;5.60;;
14876;SDS011;69691;48.172;17.070;2023-07-29T04:45:43;8.50;;;6.15;;
14876;SDS011;69691;48.172;17.070;2023-07-29T04:48:09;7.75;;;5.38;;
14876;SDS011;69691;48.172;17.070;2023-07-29T04:50:35;6.88;;;5.80;;
14876;SDS011;69691;48.172;17.070;2023-07-29T04:53:01;5.80;;;5.20;;
14876;SDS011;69691;48.172;17.070;2023-07-29T04:55:26;5.85;;;5.20;;
14876;SDS011;69691;48.172;17.070;2023-07-29T04:57:52;10.70;;;6.10;;
14876;SDS011;69691;48.172;17.070;2023-07-29T05:00:18;9.85;;;5.68;;
14876;SDS011;69691;48.172;17.070;2023-07-29T05:02:44;7.28;;;5.43;;
14876;SDS011;69691;48.172;17.070;2023-07-29T05:05:11;6.50;;;5.78;;
14876;SDS011;69691;48.172;17.070;2023-07-29T05:07:37;8.65;;;5.40;;
14876;SDS011;69691;48.172;17.070;2023-07-29T05:10:03;9.93;;;5.65;;
14876;SDS011;69691;48.172;17.070;2023-07-29T05:12:29;6.97;;;5.28;;
14876;SDS011;69691;48.172;17.070;2023-07-29T05:14:58;6.95;;;5.32;;
14876;SDS011;69691;48.172;17.070;2023-07-29T05:17:23;7.57;;;5.72;;
14876;SDS011;69691;48.172;17.070;2023-07-29T05:19:49;9.48;;;5.65;;
14876;SDS011;69691;48.172;17.070;2023-07-29T05:22:15;11.45;;;5.68;;
14876;SDS011;69691;48.172;17.070;2023-07-29T05:24:41;6.03;;;5.28;;
14876;SDS011;69691;48.172;17.070;2023-07-29T05:27:07;12.30;;;5.30;;
14876;SDS011;69691;48.172;17.070;2023-07-29T05:29:33;7.35;;;6.50;;
14876;SDS011;69691;48.172;17.070;2023-07-29T05:31:59;8.30;;;5.45;;
14876;SDS011;69691;48.172;17.070;2023-07-29T05:34:26;6.20;;;5.60;;
14876;SDS011;69691;48.172;17.070;2023-07-29T05:36:52;7.18;;;6.00;;
14876;SDS011;69691;48.172;17.070;2023-07-29T05:39:18;9.65;;;5.18;;
14876;SDS011;69691;48.172;17.070;2023-07-29T05:41:44;5.63;;;5.13;;
14876;SDS011;69691;48.172;17.070;2023-07-29T05:44:11;6.80;;;5.95;;
14876;SDS011;69691;48.172;17.070;2023-07-29T05:46:36;6.45;;;5.70;;
14876;SDS011;69691;48.172;17.070;2023-07-29T05:49:02;6.07;;;5.47;;
14876;SDS011;69691;48.172;17.070;2023-07-29T05:51:28;6.75;;;5.00;;
14876;SDS011;69691;48.172;17.070;2023-07-29T05:53:54;8.38;;;5.38;;
14876;SDS011;69691;48.172;17.070;2023-07-29T05:56:20;9.52;;;5.45;;
14876;SDS011;69691;48.172;17.070;2023-07-29T05:58:46;6.18;;;5.55;;
14876;SDS011;69691;48.172;17.070;2023-07-29T06:01:12;5.00;;;4.50;;
14876;SDS011;69691;48.172;17.070;2023-07-29T06:03:38;5.00;;;4.50;;
14876;SDS011;69691;48.172;17.070;2023-07-29T06:06:03;4.45;;;4.10;;
14876;SDS011;69691;48.172;17.070;2023-07-29T06:08:29;4.85;;;4.45;;
14876;SDS011;69691;48.172;17.070;2023-07-29T06:10:58;5.00;;;4.50;;
14876;SDS011;69691;48.172;17.070;2023-07-29T06:13:23;10.75;;;4.65;;
14876;SDS011;69691;48.172;17.070;2023-07-29T06:15:49;4.55;;;4.10;;
14876;SDS011;69691;48.172;17.070;2023-07-29T06:18:15;4.60;;;4.20;;
14876;SDS011;69691;48.172;17.070;2023-07-29T06:20:41;5.07;;;4.40;;
14876;SDS011;69691;48.172;17.070;2023-07-29T06:23:08;4.95;;;4.38;;
14876;SDS011;69691;48.172;17.070;2023-07-29T06:25:34;3.92;;;3.63;;
14876;SDS011;69691;48.172;17.070;2023-07-29T06:28:00;4.28;;;3.90;;
14876;SDS011;69691;48.172;17.070;2023-07-29T06:30:25;4.32;;;3.92;;
14876;SDS011;69691;48.172;17.070;2023-07-29T06:32:51;4.25;;;3.92;;
14876;SDS011;69691;48.172;17.070;2023-07-29T06:35:17;6.32;;;3.70;;
14876;SDS011;69691;48.172;17.070;2023-07-29T06:37:43;4.65;;;4.20;;
14876;SDS011;69691;48.172;17.070;2023-07-29T06:40:09;4.57;;;4.18;;
14876;SDS011;69691;48.172;17.070;2023-07-29T06:42:35;4.00;;;3.70;;
14876;SDS011;69691;48.172;17.070;2023-07-29T06:45:02;4.40;;;4.05;;
14876;SDS011;69691;48.172;17.070;2023-07-29T06:47:30;4.32;;;4.00;;
14876;SDS011;69691;48.172;17.070;2023-07-29T06:49:56;4.82;;;3.72;;
14876;SDS011;69691;48.172;17.070;2023-07-29T06:52:22;4.30;;;3.95;;
14876;SDS011;69691;48.172;17.070;2023-07-29T06:54:47;4.72;;;4.32;;
14876;SDS011;69691;48.172;17.070;2023-07-29T06:57:13;11.48;;;4.80;;
14876;SDS011;69691;48.172;17.070;2023-07-29T06:59:39;4.45;;;3.90;;
14876;SDS011;69691;48.172;17.070;2023-07-29T07:02:06;4.55;;;4.10;;
14876;SDS011;69691;48.172;17.070;2023-07-29T07:04:32;4.60;;;4.20;;
14876;SDS011;69691;48.172;17.070;2023-07-29T07:06:58;4.28;;;3.85;;
14876;SDS011;69691;48.172;17.070;2023-07-29T07:09:24;4.35;;;3.92;;
14876;SDS011;69691;48.172;17.070;2023-07-29T07:11:49;4.38;;;3.97;;
14876;SDS011;69691;48.172;17.070;2023-07-29T07:14:15;4.53;;;4.13;;
14876;SDS011;69691;48.172;17.070;2023-07-29T07:16:41;4.20;;;3.90;;
14876;SDS011;69691;48.172;17.070;2023-07-29T07:19:07;8.40;;;3.55;;
14876;SDS011;69691;48.172;17.070;2023-07-29T07:21:33;4.10;;;3.80;;
14876;SDS011;69691;48.172;17.070;2023-07-29T07:23:58;3.60;;;3.30;;
14876;SDS011;69691;48.172;17.070;2023-07-29T07:26:24;6.28;;;4.22;;
14876;SDS011;69691;48.172;17.070;2023-07-29T07:28:50;3.72;;;3.40;;
14876;SDS011;69691;48.172;17.070;2023-07-29T07:31:17;4.80;;;3.33;;
14876;SDS011;69691;48.172;17.070;2023-07-29T07:33:43;5.50;;;3.58;;
14876;SDS011;69691;48.172;17.070;2023-07-29T07:36:09;5.43;;;3.78;;
14876;SDS011;69691;48.172;17.070;2023-07-29T07:38:35;3.47;;;3.17;;
14876;SDS011;69691;48.172;17.070;2023-07-29T07:41:01;4.10;;;3.75;;
14876;SDS011;69691;48.172;17.070;2023-07-29T07:43:27;5.20;;;3.78;;
14876;SDS011;69691;48.172;17.070;2023-07-29T07:46:00;4.78;;;3.50;;
14876;SDS011;69691;48.172;17.070;2023-07-29T07:48:27;4.30;;;3.72;;
14876;SDS011;69691;48.172;17.070;2023-07-29T07:50:53;3.40;;;3.10;;
14876;SDS011;69691;48.172;17.070;2023-07-29T07:53:19;3.50;;;3.20;;
14876;SDS011;69691;48.172;17.070;2023-07-29T07:55:45;3.53;;;3.28;;
14876;SDS011;69691;48.172;17.070;2023-07-29T07:58:11;4.60;;;3.08;;
14876;SDS011;69691;48.172;17.070;2023-07-29T08:00:38;3.75;;;3.45;;
14876;SDS011;69691;48.172;17.070;2023-07-29T08:03:04;3.67;;;3.38;;
14876;SDS011;69691;48.172;17.070;2023-07-29T08:05:30;3.80;;;3.53;;
14876;SDS011;69691;48.172;17.070;2023-07-29T08:07:55;5.00;;;3.38;;
14876;SDS011;69691;48.172;17.070;2023-07-29T08:10:22;3.35;;;3.05;;
14876;SDS011;69691;48.172;17.070;2023-07-29T08:12:48;3.80;;;3.50;;
14876;SDS011;69691;48.172;17.070;2023-07-29T08:15:14;3.33;;;3.03;;
14876;SDS011;69691;48.172;17.070;2023-07-29T08:17:40;4.53;;;3.45;;
14876;SDS011;69691;48.172;17.070;2023-07-29T08:20:06;3.72;;;3.42;;
14876;SDS011;69691;48.172;17.070;2023-07-29T08:22:32;3.83;;;3.50;;
14876;SDS011;69691;48.172;17.070;2023-07-29T08:24:58;4.75;;;3.25;;
14876;SDS011;69691;48.172;17.070;2023-07-29T08:27:23;5.38;;;3.35;;
14876;SDS011;69691;48.172;17.070;2023-07-29T08:29:49;4.18;;;3.08;;
14876;SDS011;69691;48.172;17.070;2023-07-29T08:32:15;3.20;;;3.00;;
14876;SDS011;69691;48.172;17.070;2023-07-29T08:34:41;3.92;;;2.72;;
14876;SDS011;69691;48.172;17.070;2023-07-29T08:37:07;3.85;;;2.85;;
14876;SDS011;69691;48.172;17.070;2023-07-29T08:39:32;4.70;;;2.83;;
14876;SDS011;69691;48.172;17.070;2023-07-29T08:42:04;4.15;;;2.78;;
14876;SDS011;69691;48.172;17.070;2023-07-29T08:44:36;2.85;;;2.65;;
14876;SDS011;69691;48.172;17.070;2023-07-29T08:47:07;5.47;;;2.78;;
14876;SDS011;69691;48.172;17.070;2023-07-29T08:49:33;7.13;;;2.88;;
14876;SDS011;69691;48.172;17.070;2023-07-29T08:51:59;3.15;;;2.85;;
14876;SDS011;69691;48.172;17.070;2023-07-29T08:54:26;3.30;;;3.00;;
14876;SDS011;69691;48.172;17.070;2023-07-29T08:56:52;3.08;;;2.88;;
14876;SDS011;69691;48.172;17.070;2023-07-29T08:59:18;3.60;;;3.10;;
14876;SDS011;69691;48.172;17.070;2023-07-29T09:01:44;3.15;;;2.95;;
14876;SDS011;69691;48.172;17.070;2023-07-29T09:04:12;3.00;;;2.70;;
14876;SDS011;69691;48.172;17.070;2023-07-29T09:06:38;3.38;;;3.03;;
14876;SDS011;69691;48.172;17.070;2023-07-29T09:09:05;3.75;;;3.17;;
14876;SDS011;69691;48.172;17.070;2023-07-29T09:11:33;5.10;;;2.85;;
14876;SDS011;69691;48.172;17.070;2023-07-29T09:13:59;4.78;;;2.58;;
14876;SDS011;69691;48.172;17.070;2023-07-29T09:16:25;2.72;;;2.53;;
14876;SDS011;69691;48.172;17.070;2023-07-29T09:18:51;3.85;;;2.85;;
14876;SDS011;69691;48.172;17.070;2023-07-29T09:21:18;3.40;;;2.95;;
14876;SDS011;69691;48.172;17.070;2023-07-29T09:23:50;3.63;;;3.28;;
14876;SDS011;69691;48.172;17.070;2023-07-29T09:26:22;3.55;;;3.25;;
14876;SDS011;69691;48.172;17.070;2023-07-29T09:28:56;3.75;;;3.42;;
14876;SDS011;69691;48.172;17.070;2023-07-29T09:31:24;3.17;;;2.97;;
14876;SDS011;69691;48.172;17.070;2023-07-29T09:33:56;3.53;;;3.22;;
14876;SDS011;69691;48.172;17.070;2023-07-29T09:36:27;3.28;;;3.08;;
14876;SDS011;69691;48.172;17.070;2023-07-29T09:38:56;2.83;;;2.70;;
14876;SDS011;69691;48.172;17.070;2023-07-29T09:41:23;3.40;;;3.10;;
14876;SDS011;69691;48.172;17.070;2023-07-29T09:43:57;4.65;;;3.40;;
14876;SDS011;69691;48.172;17.070;2023-07-29T09:46:34;3.10;;;2.90;;
14876;SDS011;69691;48.172;17.070;2023-07-29T09:49:05;3.33;;;3.13;;
14876;SDS011;69691;48.172;17.070;2023-07-29T09:51:36;3.33;;;3.03;;
14876;SDS011;69691;48.172;17.070;2023-07-29T09:54:04;4.35;;;3.58;;
14876;SDS011;69691;48.172;17.070;2023-07-29T09:56:30;5.25;;;3.08;;
14876;SDS011;69691;48.172;17.070;2023-07-29T09:58:56;3.20;;;3.00;;
14876;SDS011;69691;48.172;17.070;2023-07-29T10:01:22;3.15;;;2.72;;
14876;SDS011;69691;48.172;17.070;2023-07-29T10:03:49;4.65;;;3.30;;
14876;SDS011;69691;48.172;17.070;2023-07-29T10:06:15;3.28;;;3.00;;
14876;SDS011;69691;48.172;17.070;2023-07-29T10:08:44;3.20;;;3.00;;
14876;SDS011;69691;48.172;17.070;2023-07-29T10:11:11;7.00;;;2.92;;
14876;SDS011;69691;48.172;17.070;2023-07-29T10:13:37;3.20;;;3.00;;
14876;SDS011;69691;48.172;17.070;2023-07-29T10:16:04;3.42;;;3.10;;
14876;SDS011;69691;48.172;17.070;2023-07-29T10:18:31;3.72;;;3.50;;
14876;SDS011;69691;48.172;17.070;2023-07-29T10:20:59;3.45;;;3.25;;
14876;SDS011;69691;48.172;17.070;2023-07-29T10:23:27;4.00;;;3.70;;
14876;SDS011;69691;48.172;17.070;2023-07-29T10:26:04;3.00;;;2.80;;
14876;SDS011;69691;48.172;17.070;2023-07-29T10:28:35;4.35;;;3.20;;
14876;SDS011;69691;48.172;17.070;2023-07-29T10:31:08;5.38;;;3.85;;
14876;SDS011;69691;48.172;17.070;2023-07-29T10:33:35;3.47;;;3.28;;
14876;SDS011;69691;48.172;17.070;2023-07-29T10:36:03;4.10;;;3.22;;
14876;SDS011;69691;48.172;17.070;2023-07-29T10:38:30;3.83;;;3.53;;
14876;SDS011;69691;48.172;17.070;2023-07-29T10:40:56;3.53;;;3.33;;
14876;SDS011;69691;48.172;17.070;2023-07-29T10:43:32;3.03;;;2.83;;
14876;SDS011;69691;48.172;17.070;2023-07-29T10:46:19;3.17;;;2.97;;
14876;SDS011;69691;48.172;17.070;2023-07-29T10:51:28;3.80;;;3.50;;
14876;SDS011;69691;48.172;17.070;2023-07-29T10:54:03;3.85;;;3.38;;
14876;SDS011;69691;48.172;17.070;2023-07-29T10:56:39;5.57;;;3.65;;
14876;SDS011;69691;48.172;17.070;2023-07-29T11:01:37;4.95;;;3.58;;
14876;SDS011;69691;48.172;17.070;2023-07-29T11:12:40;3.10;;;2.72;;
14876;SDS011;69691;48.172;17.070;2023-07-29T11:17:54;3.67;;;3.47;;
14876;SDS011;69691;48.172;17.070;2023-07-29T11:20:25;4.20;;;3.80;;
14876;SDS011;69691;48.172;17.070;2023-07-29T11:22:57;6.35;;;3.90;;
14876;SDS011;69691;48.172;17.070;2023-07-29T11:25:29;5.05;;;4.55;;
14876;SDS011;69691;48.172;17.070;2023-07-29T11:27:57;4.90;;;4.50;;
14876;SDS011;69691;48.172;17.070;2023-07-29T11:30:24;6.72;;;3.85;;
14876;SDS011;69691;48.172;17.070;2023-07-29T11:32:54;5.32;;;4.75;;
14876;SDS011;69691;48.172;17.070;2023-07-29T11:35:21;5.93;;;4.82;;
14876;SDS011;69691;48.172;17.070;2023-07-29T11:37:47;17.85;;;5.40;;
14876;SDS011;69691;48.172;17.070;2023-07-29T11:40:15;4.47;;;4.07;;
14876;SDS011;69691;48.172;17.070;2023-07-29T11:42:43;4.65;;;4.25;;
14876;SDS011;69691;48.172;17.070;2023-07-29T11:45:11;4.93;;;3.80;;
14876;SDS011;69691;48.172;17.070;2023-07-29T11:47:39;5.68;;;4.53;;
14876;SDS011;69691;48.172;17.070;2023-07-29T11:50:05;5.07;;;4.10;;
14876;SDS011;69691;48.172;17.070;2023-07-29T11:52:35;6.03;;;4.45;;
14876;SDS011;69691;48.172;17.070;2023-07-29T11:55:02;6.40;;;5.03;;
14876;SDS011;69691;48.172;17.070;2023-07-29T11:57:30;4.95;;;4.38;;
14876;SDS011;69691;48.172;17.070;2023-07-29T12:00:01;4.65;;;4.18;;
14876;SDS011;69691;48.172;17.070;2023-07-29T12:02:34;5.45;;;4.47;;
14876;SDS011;69691;48.172;17.070;2023-07-29T12:05:04;4.85;;;4.32;;
14876;SDS011;69691;48.172;17.070;2023-07-29T12:07:31;4.55;;;4.15;;
14876;SDS011;69691;48.172;17.070;2023-07-29T12:09:58;8.25;;;4.70;;
14876;SDS011;69691;48.172;17.070;2023-07-29T12:12:24;6.38;;;4.72;;
14876;SDS011;69691;48.172;17.070;2023-07-29T12:14:50;7.65;;;4.38;;
14876;SDS011;69691;48.172;17.070;2023-07-29T12:17:16;5.07;;;4.63;;
14876;SDS011;69691;48.172;17.070;2023-07-29T12:19:43;5.38;;;4.72;;
14876;SDS011;69691;48.172;17.070;2023-07-29T12:22:10;4.75;;;4.35;;
14876;SDS011;69691;48.172;17.070;2023-07-29T12:24:37;4.60;;;4.20;;
14876;SDS011;69691;48.172;17.070;2023-07-29T12:27:05;6.60;;;4.07;;
14876;SDS011;69691;48.172;17.070;2023-07-29T12:29:41;5.70;;;3.88;;
14876;SDS011;69691;48.172;17.070;2023-07-29T12:32:08;4.68;;;4.15;;
14876;SDS011;69691;48.172;17.070;2023-07-29T12:34:36;5.50;;;4.35;;
14876;SDS011;69691;48.172;17.070;2023-07-29T12:37:04;4.72;;;4.00;;
14876;SDS011;69691;48.172;17.070;2023-07-29T12:39:32;4.57;;;4.18;;
14876;SDS011;69691;48.172;17.070;2023-07-29T12:42:00;4.72;;;4.25;;
14876;SDS011;69691;48.172;17.070;2023-07-29T12:44:29;4.63;;;4.30;;
14876;SDS011;69691;48.172;17.070;2023-07-29T12:46:59;8.00;;;4.40;;
14876;SDS011;69691;48.172;17.070;2023-07-29T12:49:26;4.93;;;4.53;;
14876;SDS011;69691;48.172;17.070;2023-07-29T12:51:53;4.53;;;4.10;;
14876;SDS011;69691;48.172;17.070;2023-07-29T12:54:19;4.50;;;4.10;;
14876;SDS011;69691;48.172;17.070;2023-07-29T12:56:45;4.35;;;3.95;;
14876;SDS011;69691;48.172;17.070;2023-07-29T12:59:11;5.80;;;4.55;;
14876;SDS011;69691;48.172;17.070;2023-07-29T13:01:37;8.35;;;4.63;;
14876;SDS011;69691;48.172;17.070;2023-07-29T13:04:03;5.88;;;4.35;;
14876;SDS011;69691;48.172;17.070;2023-07-29T13:06:28;9.32;;;4.18;;
14876;SDS011;69691;48.172;17.070;2023-07-29T13:08:54;8.85;;;4.57;;
14876;SDS011;69691;48.172;17.070;2023-07-29T13:11:20;4.63;;;4.22;;
14876;SDS011;69691;48.172;17.070;2023-07-29T13:13:46;4.57;;;4.18;;
14876;SDS011;69691;48.172;17.070;2023-07-29T13:16:12;6.00;;;4.28;;
14876;SDS011;69691;48.172;17.070;2023-07-29T13:18:38;6.65;;;4.78;;
14876;SDS011;69691;48.172;17.070;2023-07-29T13:21:04;4.63;;;4.10;;
14876;SDS011;69691;48.172;17.070;2023-07-29T13:23:30;4.55;;;4.00;;
14876;SDS011;69691;48.172;17.070;2023-07-29T13:25:56;4.85;;;4.43;;
14876;SDS011;69691;48.172;17.070;2023-07-29T13:28:22;4.90;;;4.40;;
14876;SDS011;69691;48.172;17.070;2023-07-29T13:30:49;5.63;;;4.45;;
14876;SDS011;69691;48.172;17.070;2023-07-29T13:33:14;5.30;;;4.80;;
14876;SDS011;69691;48.172;17.070;2023-07-29T13:35:40;8.95;;;4.85;;
14876;SDS011;69691;48.172;17.070;2023-07-29T13:38:06;5.28;;;4.10;;
14876;SDS011;69691;48.172;17.070;2023-07-29T13:40:32;4.55;;;4.15;;
14876;SDS011;69691;48.172;17.070;2023-07-29T13:42:58;7.45;;;4.45;;
14876;SDS011;69691;48.172;17.070;2023-07-29T13:45:24;4.63;;;4.20;;
14876;SDS011;69691;48.172;17.070;2023-07-29T13:47:50;6.45;;;4.57;;
14876;SDS011;69691;48.172;17.070;2023-07-29T13:50:16;5.07;;;4.57;;
14876;SDS011;69691;48.172;17.070;2023-07-29T13:52:43;6.75;;;4.60;;
14876;SDS011;69691;48.172;17.070;2023-07-29T13:55:09;4.93;;;4.15;;
14876;SDS011;69691;48.172;17.070;2023-07-29T13:57:36;8.10;;;4.60;;
14876;SDS011;69691;48.172;17.070;2023-07-29T14:00:05;7.38;;;5.00;;
14876;SDS011;69691;48.172;17.070;2023-07-29T14:02:36;6.45;;;5.20;;
14876;SDS011;69691;48.172;17.070;2023-07-29T14:05:02;7.82;;;4.68;;
14876;SDS011;69691;48.172;17.070;2023-07-29T14:07:28;7.10;;;3.95;;
14876;SDS011;69691;48.172;17.070;2023-07-29T14:09:54;6.55;;;4.65;;
14876;SDS011;69691;48.172;17.070;2023-07-29T14:12:20;4.68;;;4.22;;
14876;SDS011;69691;48.172;17.070;2023-07-29T14:14:46;5.82;;;4.60;;
14876;SDS011;69691;48.172;17.070;2023-07-29T14:17:12;6.43;;;4.57;;
14876;SDS011;69691;48.172;17.070;2023-07-29T14:19:38;4.75;;;4.35;;
14876;SDS011;69691;48.172;17.070;2023-07-29T14:22:03;10.68;;;4.88;;
14876;SDS011;69691;48.172;17.070;2023-07-29T14:24:30;6.93;;;4.72;;
14876;SDS011;69691;48.172;17.070;2023-07-29T14:26:55;6.05;;;4.10;;
14876;SDS011;69691;48.172;17.070;2023-07-29T14:29:21;8.80;;;4.43;;
14876;SDS011;69691;48.172;17.070;2023-07-29T14:31:47;8.50;;;4.82;;
14876;SDS011;69691;48.172;17.070;2023-07-29T14:34:13;10.63;;;4.75;;
14876;SDS011;69691;48.172;17.070;2023-07-29T14:36:39;8.52;;;4.63;;
14876;SDS011;69691;48.172;17.070;2023-07-29T14:39:04;7.00;;;4.43;;
14876;SDS011;69691;48.172;17.070;2023-07-29T14:41:30;6.75;;;4.53;;
14876;SDS011;69691;48.172;17.070;2023-07-29T14:43:56;5.72;;;4.80;;
14876;SDS011;69691;48.172;17.070;2023-07-29T14:46:22;6.10;;;4.10;;
14876;SDS011;69691;48.172;17.070;2023-07-29T14:48:48;7.25;;;4.57;;
14876;SDS011;69691;48.172;17.070;2023-07-29T14:51:14;6.70;;;4.20;;
14876;SDS011;69691;48.172;17.070;2023-07-29T14:53:40;6.88;;;4.13;;